VOE2752 LFST-LFKC
Flight info
| Callsign | VOE2752 |
|---|---|
| Flight time | 1h 1m |
| Altitude | 35000 |
| Route | LUPEN Y711 NATOR DCT TRA DCT RIPUS DCT GERSA DCT SOSON DCT ODINA DCT EVANO DCT OLETI M858 LIGUR |
| Aircraft | A320/M-SDFGHIJ1RWY/LB1 |
Departure
| Time | 2026-04-21 14:10 |
|---|---|
| Airport | Strasbourg Airport (LFST) |
Arrival
| Time | 2026-04-21 15:11 |
|---|---|
| Airport | Calvi Sainte Catherine Airport (LFKC) |
| Time | Latitude | Longitude | Altitude | Speed | Heading |
|---|---|---|---|---|---|
| 2026-04-21 13:47 | 48.54335 | 7.62720 | 501 ft | 0 kts | 347° |
| 2026-04-21 14:05 | 48.54340 | 7.62721 | 501 ft | 1 kts | 9° |
| 2026-04-21 14:05 | 48.54342 | 7.62747 | 501 ft | 4 kts | 136° |
| 2026-04-21 14:06 | 48.54304 | 7.62782 | 500 ft | 9 kts | 148° |
| 2026-04-21 14:06 | 48.54237 | 7.62857 | 499 ft | 14 kts | 140° |
| 2026-04-21 14:06 | 48.54144 | 7.62940 | 498 ft | 14 kts | 183° |
| 2026-04-21 14:06 | 48.54065 | 7.62833 | 498 ft | 17 kts | 229° |
| 2026-04-21 14:07 | 48.53968 | 7.62666 | 497 ft | 24 kts | 229° |
| 2026-04-21 14:07 | 48.53846 | 7.62456 | 498 ft | 27 kts | 229° |
| 2026-04-21 14:07 | 48.53722 | 7.62244 | 497 ft | 26 kts | 230° |
| 2026-04-21 14:07 | 48.53602 | 7.62039 | 498 ft | 25 kts | 229° |
| 2026-04-21 14:08 | 48.53485 | 7.61840 | 498 ft | 24 kts | 228° |
| 2026-04-21 14:08 | 48.53375 | 7.61655 | 501 ft | 22 kts | 230° |
| 2026-04-21 14:08 | 48.53271 | 7.61486 | 501 ft | 20 kts | 208° |
| 2026-04-21 14:08 | 48.53179 | 7.61545 | 500 ft | 14 kts | 139° |
| 2026-04-21 14:09 | 48.53167 | 7.61676 | 498 ft | 16 kts | 53° |
| 2026-04-21 14:09 | 48.53383 | 7.62050 | 497 ft | 84 kts | 49° |
| 2026-04-21 14:09 | 48.53922 | 7.62976 | 506 ft | 144 kts | 47° |
| 2026-04-21 14:09 | 48.54607 | 7.64145 | 1034 ft | 151 kts | 50° |
| 2026-04-21 14:10 | 48.55267 | 7.65295 | 1867 ft | 146 kts | 49° |
| 2026-04-21 14:10 | 48.55913 | 7.66439 | 2470 ft | 152 kts | 50° |
| 2026-04-21 14:10 | 48.56633 | 7.67722 | 2897 ft | 167 kts | 51° |
| 2026-04-21 14:10 | 48.57427 | 7.69114 | 3384 ft | 180 kts | 50° |
| 2026-04-21 14:11 | 48.58259 | 7.70540 | 3980 ft | 188 kts | 50° |
| 2026-04-21 14:11 | 48.59199 | 7.71951 | 4623 ft | 195 kts | 36° |
| 2026-04-21 14:11 | 48.60499 | 7.72611 | 5260 ft | 206 kts | 7° |
| 2026-04-21 14:11 | 48.61912 | 7.72109 | 5906 ft | 220 kts | 334° |
| 2026-04-21 14:12 | 48.62988 | 7.70407 | 6569 ft | 233 kts | 301° |
| 2026-04-21 14:12 | 48.63282 | 7.68029 | 7227 ft | 242 kts | 264° |
| 2026-04-21 14:12 | 48.62642 | 7.65618 | 7702 ft | 259 kts | 230° |
| 2026-04-21 14:12 | 48.61125 | 7.63922 | 8262 ft | 269 kts | 197° |
| 2026-04-21 14:13 | 48.59231 | 7.63679 | 8896 ft | 273 kts | 164° |
| 2026-04-21 14:13 | 48.57429 | 7.64738 | 9513 ft | 281 kts | 154° |
| 2026-04-21 14:13 | 48.55591 | 7.65961 | 10098 ft | 294 kts | 155° |
| 2026-04-21 14:13 | 48.53591 | 7.67243 | 10558 ft | 312 kts | 156° |
| 2026-04-21 14:14 | 48.51448 | 7.68535 | 10980 ft | 329 kts | 158° |
| 2026-04-21 14:14 | 48.49195 | 7.69861 | 11756 ft | 334 kts | 158° |
| 2026-04-21 14:14 | 48.47022 | 7.71141 | 12533 ft | 338 kts | 158° |
| 2026-04-21 14:14 | 48.44717 | 7.72508 | 13273 ft | 343 kts | 158° |
| 2026-04-21 14:15 | 48.42391 | 7.73884 | 14016 ft | 348 kts | 158° |
| 2026-04-21 14:15 | 48.40033 | 7.75275 | 14757 ft | 352 kts | 158° |
| 2026-04-21 14:15 | 48.37627 | 7.76690 | 15482 ft | 357 kts | 159° |
| 2026-04-21 14:15 | 48.35197 | 7.78118 | 16186 ft | 361 kts | 159° |
| 2026-04-21 14:16 | 48.32779 | 7.79538 | 16877 ft | 365 kts | 159° |
| 2026-04-21 14:16 | 48.30315 | 7.80983 | 17554 ft | 369 kts | 159° |
| 2026-04-21 14:16 | 48.27821 | 7.82445 | 18203 ft | 373 kts | 159° |
| 2026-04-21 14:16 | 48.25292 | 7.83927 | 18838 ft | 378 kts | 159° |
| 2026-04-21 14:17 | 48.22780 | 7.85400 | 19412 ft | 382 kts | 159° |
| 2026-04-21 14:17 | 48.20200 | 7.86908 | 19998 ft | 387 kts | 159° |
| 2026-04-21 14:17 | 48.17589 | 7.88432 | 20574 ft | 392 kts | 160° |
| 2026-04-21 14:17 | 48.14911 | 7.89994 | 21123 ft | 397 kts | 160° |
| 2026-04-21 14:18 | 48.12272 | 7.91531 | 21643 ft | 402 kts | 160° |
| 2026-04-21 14:18 | 48.09562 | 7.93107 | 22197 ft | 406 kts | 160° |
| 2026-04-21 14:18 | 48.06821 | 7.94702 | 22709 ft | 410 kts | 161° |
| 2026-04-21 14:18 | 48.04071 | 7.96299 | 23194 ft | 415 kts | 161° |
| 2026-04-21 14:19 | 48.01282 | 7.97917 | 23696 ft | 419 kts | 162° |
| 2026-04-21 14:19 | 47.98461 | 7.99551 | 24249 ft | 421 kts | 162° |
| 2026-04-21 14:19 | 47.95609 | 8.01199 | 24809 ft | 423 kts | 162° |
| 2026-04-21 14:19 | 47.92789 | 8.02827 | 25218 ft | 427 kts | 162° |
| 2026-04-21 14:20 | 47.89942 | 8.04466 | 25593 ft | 433 kts | 162° |
| 2026-04-21 14:20 | 47.86966 | 8.06175 | 26009 ft | 437 kts | 162° |
| 2026-04-21 14:20 | 47.84034 | 8.07854 | 26400 ft | 440 kts | 162° |
| 2026-04-21 14:20 | 47.81029 | 8.09577 | 26827 ft | 443 kts | 163° |
| 2026-04-21 14:21 | 47.78048 | 8.11290 | 27250 ft | 445 kts | 163° |
| 2026-04-21 14:21 | 47.75059 | 8.13001 | 27593 ft | 449 kts | 163° |
| 2026-04-21 14:21 | 47.71994 | 8.14756 | 27967 ft | 453 kts | 163° |
| 2026-04-21 14:21 | 47.68947 | 8.16498 | 28315 ft | 456 kts | 163° |
| 2026-04-21 14:22 | 47.65844 | 8.18275 | 28640 ft | 460 kts | 163° |
| 2026-04-21 14:22 | 47.62734 | 8.20048 | 28988 ft | 463 kts | 164° |
| 2026-04-21 14:22 | 47.59602 | 8.21835 | 29311 ft | 467 kts | 164° |
| 2026-04-21 14:22 | 47.56456 | 8.23625 | 29687 ft | 468 kts | 164° |
| 2026-04-21 14:23 | 47.53279 | 8.25432 | 30106 ft | 469 kts | 164° |
| 2026-04-21 14:23 | 47.50166 | 8.27201 | 30504 ft | 470 kts | 164° |
| 2026-04-21 14:23 | 47.46985 | 8.29003 | 30871 ft | 471 kts | 165° |
| 2026-04-21 14:23 | 47.43856 | 8.30777 | 31284 ft | 471 kts | 165° |
| 2026-04-21 14:24 | 47.40640 | 8.32601 | 31728 ft | 470 kts | 165° |
| 2026-04-21 14:24 | 47.37477 | 8.34387 | 32143 ft | 469 kts | 165° |
| 2026-04-21 14:24 | 47.34295 | 8.36180 | 32546 ft | 468 kts | 165° |
| 2026-04-21 14:24 | 47.31116 | 8.37972 | 32928 ft | 468 kts | 165° |
| 2026-04-21 14:25 | 47.27963 | 8.39753 | 33364 ft | 466 kts | 165° |
| 2026-04-21 14:25 | 47.24838 | 8.41513 | 33735 ft | 465 kts | 165° |
| 2026-04-21 14:25 | 47.21689 | 8.43279 | 34002 ft | 467 kts | 165° |
| 2026-04-21 14:25 | 47.18555 | 8.45041 | 34255 ft | 469 kts | 165° |
| 2026-04-21 14:26 | 47.15459 | 8.46778 | 34509 ft | 469 kts | 165° |
| 2026-04-21 14:26 | 47.12395 | 8.48489 | 34720 ft | 470 kts | 165° |
| 2026-04-21 14:26 | 47.09329 | 8.50193 | 34883 ft | 469 kts | 166° |
| 2026-04-21 14:26 | 47.06250 | 8.51683 | 35027 ft | 467 kts | 170° |
| 2026-04-21 14:27 | 47.03059 | 8.52891 | 35042 ft | 463 kts | 175° |
| 2026-04-21 14:27 | 46.96715 | 8.54298 | 35029 ft | 455 kts | 182° |
| 2026-04-21 14:28 | 46.90421 | 8.55154 | 35053 ft | 456 kts | 182° |
| 2026-04-21 14:28 | 46.84126 | 8.56042 | 35029 ft | 455 kts | 182° |
| 2026-04-21 14:29 | 46.77822 | 8.56942 | 35059 ft | 455 kts | 182° |
| 2026-04-21 14:29 | 46.71543 | 8.57850 | 35026 ft | 455 kts | 182° |
| 2026-04-21 14:30 | 46.65200 | 8.58769 | 35007 ft | 453 kts | 182° |
| 2026-04-21 14:30 | 46.58918 | 8.59659 | 34987 ft | 453 kts | 182° |
| 2026-04-21 14:31 | 46.52618 | 8.60533 | 34984 ft | 453 kts | 182° |
| 2026-04-21 14:31 | 46.46346 | 8.61418 | 34977 ft | 451 kts | 181° |
| 2026-04-21 14:32 | 46.40112 | 8.62299 | 34981 ft | 452 kts | 181° |
| 2026-04-21 14:32 | 46.33807 | 8.63189 | 34974 ft | 451 kts | 181° |
| 2026-04-21 14:33 | 46.27544 | 8.64076 | 34978 ft | 451 kts | 181° |
| 2026-04-21 14:33 | 46.21287 | 8.64955 | 35001 ft | 451 kts | 181° |
| 2026-04-21 14:34 | 46.15044 | 8.65861 | 34984 ft | 450 kts | 181° |
| 2026-04-21 14:34 | 46.08812 | 8.66734 | 34981 ft | 449 kts | 182° |
| 2026-04-21 14:35 | 46.02606 | 8.67513 | 34957 ft | 447 kts | 183° |
| 2026-04-21 14:35 | 45.96401 | 8.68282 | 34945 ft | 448 kts | 182° |
| 2026-04-21 14:36 | 45.90169 | 8.69063 | 34940 ft | 447 kts | 182° |
| 2026-04-21 14:36 | 45.83918 | 8.69852 | 34929 ft | 447 kts | 182° |
| 2026-04-21 14:37 | 45.77743 | 8.70626 | 34940 ft | 446 kts | 182° |
| 2026-04-21 14:37 | 45.71548 | 8.71402 | 34924 ft | 446 kts | 182° |
| 2026-04-21 14:38 | 45.65346 | 8.72176 | 34933 ft | 446 kts | 182° |
| 2026-04-21 14:38 | 45.59100 | 8.72955 | 34929 ft | 446 kts | 182° |
| 2026-04-21 14:39 | 45.52945 | 8.73722 | 34931 ft | 445 kts | 182° |
| 2026-04-21 14:39 | 45.46722 | 8.74495 | 34937 ft | 446 kts | 182° |
| 2026-04-21 14:40 | 45.40531 | 8.75264 | 34930 ft | 447 kts | 182° |
| 2026-04-21 14:40 | 45.34316 | 8.76033 | 34928 ft | 446 kts | 182° |
| 2026-04-21 14:41 | 45.28168 | 8.76971 | 34938 ft | 446 kts | 180° |
| 2026-04-21 14:41 | 45.21959 | 8.78027 | 34925 ft | 445 kts | 180° |
| 2026-04-21 14:42 | 45.15803 | 8.78339 | 34918 ft | 448 kts | 187° |
| 2026-04-21 14:42 | 45.09510 | 8.78277 | 34917 ft | 452 kts | 187° |
| 2026-04-21 14:43 | 45.03144 | 8.78262 | 34914 ft | 451 kts | 187° |
| 2026-04-21 14:43 | 44.96844 | 8.78275 | 34912 ft | 451 kts | 187° |
| 2026-04-21 14:44 | 44.90577 | 8.78297 | 34907 ft | 452 kts | 187° |
| 2026-04-21 14:44 | 44.84225 | 8.78329 | 34904 ft | 452 kts | 187° |
| 2026-04-21 14:45 | 44.77887 | 8.78362 | 34909 ft | 451 kts | 187° |
| 2026-04-21 14:45 | 44.71595 | 8.78390 | 34907 ft | 451 kts | 187° |
| 2026-04-21 14:46 | 44.65255 | 8.78416 | 34910 ft | 449 kts | 187° |
| 2026-04-21 14:46 | 44.58975 | 8.78442 | 34596 ft | 450 kts | 187° |
| 2026-04-21 14:46 | 44.55845 | 8.78456 | 34193 ft | 448 kts | 187° |
| 2026-04-21 14:47 | 44.52718 | 8.78470 | 33618 ft | 448 kts | 187° |
| 2026-04-21 14:47 | 44.49547 | 8.78483 | 32967 ft | 449 kts | 187° |
| 2026-04-21 14:47 | 44.46435 | 8.78494 | 32316 ft | 449 kts | 187° |
| 2026-04-21 14:47 | 44.43306 | 8.78507 | 31672 ft | 449 kts | 186° |
| 2026-04-21 14:48 | 44.40140 | 8.78520 | 30987 ft | 450 kts | 186° |
| 2026-04-21 14:48 | 44.36989 | 8.78532 | 30273 ft | 451 kts | 186° |
| 2026-04-21 14:48 | 44.33851 | 8.78547 | 29651 ft | 450 kts | 186° |
| 2026-04-21 14:48 | 44.30726 | 8.78564 | 29222 ft | 447 kts | 186° |
| 2026-04-21 14:49 | 44.27618 | 8.78579 | 28777 ft | 444 kts | 186° |
| 2026-04-21 14:49 | 44.24516 | 8.78593 | 28328 ft | 441 kts | 186° |
| 2026-04-21 14:49 | 44.21447 | 8.78608 | 27866 ft | 439 kts | 186° |
| 2026-04-21 14:49 | 44.18391 | 8.78621 | 27407 ft | 436 kts | 186° |
| 2026-04-21 14:50 | 44.16326 | 8.78630 | 27104 ft | 434 kts | 186° |
| 2026-04-21 14:50 | 44.12303 | 8.78647 | 26471 ft | 431 kts | 186° |
| 2026-04-21 14:50 | 44.09266 | 8.78660 | 26022 ft | 428 kts | 186° |
| 2026-04-21 14:50 | 44.06316 | 8.78673 | 25587 ft | 425 kts | 186° |
| 2026-04-21 14:51 | 44.03305 | 8.78685 | 25117 ft | 423 kts | 186° |
| 2026-04-21 14:51 | 44.00366 | 8.78698 | 24669 ft | 420 kts | 186° |
| 2026-04-21 14:51 | 43.97466 | 8.78710 | 24232 ft | 418 kts | 186° |
| 2026-04-21 14:51 | 43.94535 | 8.78723 | 23751 ft | 416 kts | 186° |
| 2026-04-21 14:52 | 43.91660 | 8.78734 | 23297 ft | 414 kts | 186° |
| 2026-04-21 14:52 | 43.88770 | 8.78748 | 22856 ft | 411 kts | 186° |
| 2026-04-21 14:52 | 43.85952 | 8.78763 | 22442 ft | 408 kts | 186° |
| 2026-04-21 14:52 | 43.83093 | 8.78776 | 21975 ft | 407 kts | 186° |
| 2026-04-21 14:53 | 43.80258 | 8.78787 | 21529 ft | 404 kts | 186° |
| 2026-04-21 14:53 | 43.77407 | 8.78800 | 21076 ft | 402 kts | 186° |
| 2026-04-21 14:53 | 43.74614 | 8.78813 | 20640 ft | 399 kts | 186° |
| 2026-04-21 14:53 | 43.71874 | 8.78825 | 20206 ft | 397 kts | 186° |
| 2026-04-21 14:54 | 43.69085 | 8.78838 | 19772 ft | 395 kts | 186° |
| 2026-04-21 14:54 | 43.66357 | 8.78849 | 19357 ft | 392 kts | 185° |
| 2026-04-21 14:54 | 43.63600 | 8.78861 | 18899 ft | 391 kts | 186° |
| 2026-04-21 14:54 | 43.60917 | 8.78874 | 18466 ft | 389 kts | 185° |
| 2026-04-21 14:55 | 43.58212 | 8.78885 | 18033 ft | 387 kts | 185° |
| 2026-04-21 14:55 | 43.55533 | 8.78896 | 17618 ft | 384 kts | 185° |
| 2026-04-21 14:55 | 43.52850 | 8.78906 | 17211 ft | 381 kts | 185° |
| 2026-04-21 14:55 | 43.50214 | 8.78918 | 16825 ft | 377 kts | 185° |
| 2026-04-21 14:56 | 43.47601 | 8.78929 | 16427 ft | 374 kts | 185° |
| 2026-04-21 14:56 | 43.44953 | 8.78941 | 16025 ft | 371 kts | 185° |
| 2026-04-21 14:56 | 43.42393 | 8.78952 | 15645 ft | 368 kts | 184° |
| 2026-04-21 14:56 | 43.39839 | 8.78963 | 15245 ft | 365 kts | 184° |
| 2026-04-21 14:57 | 43.37302 | 8.78975 | 14863 ft | 362 kts | 185° |
| 2026-04-21 14:57 | 43.34773 | 8.78987 | 14484 ft | 359 kts | 184° |
| 2026-04-21 14:57 | 43.32291 | 8.78998 | 14104 ft | 356 kts | 184° |
| 2026-04-21 14:57 | 43.29791 | 8.79008 | 13705 ft | 354 kts | 184° |
| 2026-04-21 14:58 | 43.27340 | 8.79018 | 13316 ft | 352 kts | 184° |
| 2026-04-21 14:58 | 43.24889 | 8.79029 | 12927 ft | 349 kts | 184° |
| 2026-04-21 14:58 | 43.22478 | 8.79041 | 12552 ft | 346 kts | 184° |
| 2026-04-21 14:58 | 43.20115 | 8.79052 | 12185 ft | 341 kts | 184° |
| 2026-04-21 14:59 | 43.17720 | 8.79062 | 11810 ft | 337 kts | 184° |
| 2026-04-21 14:59 | 43.15382 | 8.79073 | 11436 ft | 333 kts | 184° |
| 2026-04-21 14:59 | 43.13075 | 8.79083 | 11064 ft | 329 kts | 184° |
| 2026-04-21 14:59 | 43.10799 | 8.79092 | 10692 ft | 325 kts | 184° |
| 2026-04-21 15:00 | 43.08565 | 8.79104 | 10326 ft | 322 kts | 184° |
| 2026-04-21 15:00 | 43.06339 | 8.79114 | 10038 ft | 315 kts | 184° |
| 2026-04-21 15:00 | 43.04201 | 8.79123 | 10028 ft | 300 kts | 184° |
| 2026-04-21 15:00 | 43.02101 | 8.79128 | 9825 ft | 299 kts | 184° |
| 2026-04-21 15:01 | 43.00012 | 8.79106 | 9517 ft | 300 kts | 184° |
| 2026-04-21 15:01 | 42.97942 | 8.79120 | 9179 ft | 300 kts | 184° |
| 2026-04-21 15:01 | 42.95867 | 8.79136 | 8890 ft | 299 kts | 184° |
| 2026-04-21 15:01 | 42.93783 | 8.79133 | 8634 ft | 295 kts | 184° |
| 2026-04-21 15:02 | 42.91753 | 8.79136 | 8365 ft | 290 kts | 184° |
| 2026-04-21 15:02 | 42.89732 | 8.79166 | 7959 ft | 292 kts | 183° |
| 2026-04-21 15:02 | 42.87705 | 8.79201 | 7611 ft | 288 kts | 184° |
| 2026-04-21 15:02 | 42.85720 | 8.79217 | 7075 ft | 285 kts | 184° |
| 2026-04-21 15:03 | 42.83767 | 8.79233 | 6588 ft | 273 kts | 184° |
| 2026-04-21 15:03 | 42.81897 | 8.79272 | 6192 ft | 270 kts | 183° |
| 2026-04-21 15:03 | 42.79977 | 8.79296 | 5787 ft | 269 kts | 184° |
| 2026-04-21 15:03 | 42.78095 | 8.79286 | 5389 ft | 269 kts | 184° |
| 2026-04-21 15:04 | 42.76241 | 8.79293 | 4970 ft | 263 kts | 183° |
| 2026-04-21 15:04 | 42.74443 | 8.79293 | 4569 ft | 252 kts | 184° |
| 2026-04-21 15:04 | 42.72725 | 8.79276 | 4247 ft | 241 kts | 184° |
| 2026-04-21 15:04 | 42.71072 | 8.79252 | 3943 ft | 238 kts | 184° |
| 2026-04-21 15:05 | 42.69415 | 8.79211 | 3609 ft | 236 kts | 184° |
| 2026-04-21 15:05 | 42.66136 | 8.79079 | 2919 ft | 235 kts | 184° |
| 2026-04-21 15:05 | 42.64545 | 8.79008 | 2517 ft | 225 kts | 184° |
| 2026-04-21 15:06 | 42.63001 | 8.78943 | 2134 ft | 215 kts | 183° |
| 2026-04-21 15:06 | 42.61555 | 8.78877 | 1786 ft | 204 kts | 184° |
| 2026-04-21 15:06 | 42.60206 | 8.78711 | 1830 ft | 182 kts | 193° |
| 2026-04-21 15:06 | 42.59017 | 8.78313 | 1799 ft | 170 kts | 194° |
| 2026-04-21 15:07 | 42.57825 | 8.78029 | 1747 ft | 179 kts | 189° |
| 2026-04-21 15:07 | 42.56573 | 8.77683 | 1787 ft | 187 kts | 195° |
| 2026-04-21 15:07 | 42.55309 | 8.77210 | 1760 ft | 188 kts | 198° |
| 2026-04-21 15:07 | 42.54136 | 8.76735 | 1724 ft | 165 kts | 197° |
| 2026-04-21 15:08 | 42.53057 | 8.76390 | 1555 ft | 153 kts | 190° |
| 2026-04-21 15:08 | 42.52008 | 8.76146 | 1422 ft | 154 kts | 191° |
| 2026-04-21 15:08 | 42.50938 | 8.75885 | 1420 ft | 156 kts | 191° |
| 2026-04-21 15:08 | 42.49914 | 8.75748 | 1385 ft | 143 kts | 164° |
| 2026-04-21 15:09 | 42.49199 | 8.76581 | 1259 ft | 137 kts | 113° |
| 2026-04-21 15:09 | 42.49031 | 8.77842 | 1086 ft | 137 kts | 81° |
| 2026-04-21 15:09 | 42.49451 | 8.78962 | 885 ft | 138 kts | 36° |
| 2026-04-21 15:09 | 42.50386 | 8.79296 | 675 ft | 144 kts | 3° |
| 2026-04-21 15:10 | 42.51383 | 8.79306 | 414 ft | 141 kts | 0° |
| 2026-04-21 15:10 | 42.52334 | 8.79300 | 210 ft | 136 kts | 2° |
| 2026-04-21 15:10 | 42.53091 | 8.79303 | 154 ft | 76 kts | 359° |
| 2026-04-21 15:10 | 42.53540 | 8.79297 | 124 ft | 59 kts | 0° |
| 2026-04-21 15:11 | 42.53928 | 8.79295 | 103 ft | 46 kts | 1° |
| 2026-04-21 15:11 | 42.54084 | 8.79331 | 95 ft | 10 kts | 323° |
| 2026-04-21 15:11 | 42.54040 | 8.79296 | 98 ft | 11 kts | 178° |
| 2026-04-21 15:11 | 42.53926 | 8.79298 | 103 ft | 20 kts | 179° |
| 2026-04-21 15:12 | 42.53768 | 8.79297 | 112 ft | 24 kts | 180° |
| 2026-04-21 15:12 | 42.53576 | 8.79295 | 122 ft | 29 kts | 179° |
| 2026-04-21 15:12 | 42.53359 | 8.79298 | 136 ft | 32 kts | 180° |
| 2026-04-21 15:12 | 42.53134 | 8.79299 | 152 ft | 33 kts | 180° |
| 2026-04-21 15:13 | 42.52889 | 8.79299 | 169 ft | 35 kts | 180° |
| 2026-04-21 15:13 | 42.52654 | 8.79302 | 184 ft | 30 kts | 180° |
| 2026-04-21 15:13 | 42.52474 | 8.79301 | 197 ft | 18 kts | 184° |
| 2026-04-21 15:13 | 42.52435 | 8.79219 | 199 ft | 12 kts | 271° |
| 2026-04-21 15:14 | 42.52461 | 8.79098 | 198 ft | 10 kts | 299° |
| 2026-04-21 15:14 | 42.52467 | 8.79083 | 198 ft | 0 kts | 298° |